KOFP

Hanover County Municipal Airport

Richmond/Ashland, Virginia, USA
METAR KOFP 150054Z AUTO 00000KT 10SM CLR 22/21 A2997 RMK AO2 LTG DSNT N SLP146 T02220211
Observed Flight Rules
Aug-15 @ 00:54 UTC (12 minutes ago) Visual Flight Rules
Visibility Clouds
10 miles
  • Clear skies
Temperatures Readings
Current 22°C / 72°F
Dewpoint 21°C / 70°F
Humidity 94%
Altimeter 29.97" Hg
Pressure 1014.6 hPa
Elevation 62
METAR KOFP 150054Z AUTO 00000KT 10SM CLR 22/21 A2997 RMK AO2 LTG DSNT N SLP146 T02220211
Observed Flight Rules
Aug-15 @ 00:54 UTC
(12 minutes ago)
VFR
Clouds
  • Clear skies
Temperature Dewpoint
22°C / 72°F 21°C / 70°F
Humidity Altimeter Pressure
94% 29.97" Hg 1014.6 hPa